sensor_id;sensor_type;location;lat;lon;timestamp;pressure;altitude;pressure_sealevel;temperature;humidity
82171;BME280;71755;48.038;14.346;2023-08-31T00:02:23;96827.78;;;12.55;84.67
82171;BME280;71755;48.038;14.346;2023-08-31T00:04:53;96827.00;;;12.49;84.83
82171;BME280;71755;48.038;14.346;2023-08-31T00:07:21;96821.66;;;12.44;85.14
82171;BME280;71755;48.038;14.346;2023-08-31T00:09:47;96829.97;;;12.42;85.39
82171;BME280;71755;48.038;14.346;2023-08-31T00:12:13;96820.88;;;12.38;85.52
82171;BME280;71755;48.038;14.346;2023-08-31T00:14:39;96836.97;;;12.38;85.07
82171;BME280;71755;48.038;14.346;2023-08-31T00:17:05;96831.06;;;12.41;84.99
82171;BME280;71755;48.038;14.346;2023-08-31T00:19:31;96831.06;;;12.36;85.35
82171;BME280;71755;48.038;14.346;2023-08-31T00:21:57;96840.75;;;12.32;85.46
82171;BME280;71755;48.038;14.346;2023-08-31T00:24:23;96841.28;;;12.29;85.77
82171;BME280;71755;48.038;14.346;2023-08-31T00:26:55;96839.13;;;12.26;85.83
82171;BME280;71755;48.038;14.346;2023-08-31T00:29:21;96830.56;;;12.24;85.74
82171;BME280;71755;48.038;14.346;2023-08-31T00:31:49;96834.59;;;12.21;86.08
82171;BME280;71755;48.038;14.346;2023-08-31T00:34:15;96838.34;;;12.15;85.96
82171;BME280;71755;48.038;14.346;2023-08-31T00:36:43;96838.66;;;12.09;85.89
82171;BME280;71755;48.038;14.346;2023-08-31T00:39:09;96831.94;;;12.11;85.65
82171;BME280;71755;48.038;14.346;2023-08-31T00:41:37;96832.75;;;12.07;85.71
82171;BME280;71755;48.038;14.346;2023-08-31T00:44:04;96841.84;;;12.11;85.74
82171;BME280;71755;48.038;14.346;2023-08-31T00:46:31;96846.19;;;11.92;85.91
82171;BME280;71755;48.038;14.346;2023-08-31T00:48:58;96849.41;;;11.94;86.18
82171;BME280;71755;48.038;14.346;2023-08-31T00:51:25;96852.06;;;11.94;86.24
82171;BME280;71755;48.038;14.346;2023-08-31T00:53:51;96847.00;;;11.92;86.38
82171;BME280;71755;48.038;14.346;2023-08-31T00:56:21;96851.00;;;11.95;86.33
82171;BME280;71755;48.038;14.346;2023-08-31T00:58:47;96849.94;;;11.91;86.64
82171;BME280;71755;48.038;14.346;2023-08-31T01:01:57;96849.38;;;11.83;86.62
82171;BME280;71755;48.038;14.346;2023-08-31T01:07:29;96856.06;;;11.81;86.58
82171;BME280;71755;48.038;14.346;2023-08-31T01:13:12;96856.88;;;11.86;86.04
82171;BME280;71755;48.038;14.346;2023-08-31T01:15:41;96859.03;;;11.89;85.75
82171;BME280;71755;48.038;14.346;2023-08-31T01:18:11;96860.63;;;11.85;85.84
82171;BME280;71755;48.038;14.346;2023-08-31T01:20:42;96854.19;;;11.76;86.45
82171;BME280;71755;48.038;14.346;2023-08-31T01:23:15;96859.00;;;11.69;86.73
82171;BME280;71755;48.038;14.346;2023-08-31T01:25:41;96868.91;;;11.64;87.03
82171;BME280;71755;48.038;14.346;2023-08-31T01:28:10;96861.97;;;11.57;87.39
82171;BME280;71755;48.038;14.346;2023-08-31T01:30:37;96868.34;;;11.51;87.58
82171;BME280;71755;48.038;14.346;2023-08-31T01:33:03;96865.97;;;11.55;87.27
82171;BME280;71755;48.038;14.346;2023-08-31T01:35:40;96870.22;;;11.51;87.44
82171;BME280;71755;48.038;14.346;2023-08-31T01:38:10;96872.94;;;11.56;87.55
82171;BME280;71755;48.038;14.346;2023-08-31T01:40:44;96868.66;;;11.55;87.37
82171;BME280;71755;48.038;14.346;2023-08-31T01:43:16;96868.66;;;11.55;87.44
82171;BME280;71755;48.038;14.346;2023-08-31T01:45:44;96864.63;;;11.52;87.44
82171;BME280;71755;48.038;14.346;2023-08-31T01:48:13;96870.75;;;11.48;87.09
82171;BME280;71755;48.038;14.346;2023-08-31T01:50:41;96869.97;;;11.52;86.83
82171;BME280;71755;48.038;14.346;2023-08-31T01:53:07;96871.03;;;11.46;87.17
82171;BME280;71755;48.038;14.346;2023-08-31T01:55:33;96873.16;;;11.49;87.12
82171;BME280;71755;48.038;14.346;2023-08-31T01:58:00;96869.97;;;11.47;87.02
82171;BME280;71755;48.038;14.346;2023-08-31T02:00:26;96873.47;;;11.53;87.08
82171;BME280;71755;48.038;14.346;2023-08-31T02:02:53;96881.47;;;11.63;86.59
82171;BME280;71755;48.038;14.346;2023-08-31T02:05:20;96877.75;;;11.64;86.27
82171;BME280;71755;48.038;14.346;2023-08-31T02:07:46;96880.69;;;11.63;85.98
82171;BME280;71755;48.038;14.346;2023-08-31T02:10:11;96874.00;;;11.55;86.24
82171;BME280;71755;48.038;14.346;2023-08-31T02:12:37;96879.31;;;11.45;86.43
82171;BME280;71755;48.038;14.346;2023-08-31T02:15:07;96879.03;;;11.36;86.67
82171;BME280;71755;48.038;14.346;2023-08-31T02:17:36;96887.84;;;11.21;87.44
82171;BME280;71755;48.038;14.346;2023-08-31T02:20:03;96885.19;;;11.16;87.91
82171;BME280;71755;48.038;14.346;2023-08-31T02:22:34;96885.97;;;11.22;87.72
82171;BME280;71755;48.038;14.346;2023-08-31T02:25:01;96881.44;;;11.22;87.54
82171;BME280;71755;48.038;14.346;2023-08-31T02:27:27;96882.25;;;11.28;87.51
82171;BME280;71755;48.038;14.346;2023-08-31T02:29:53;96882.78;;;11.25;87.13
82171;BME280;71755;48.038;14.346;2023-08-31T02:32:20;96881.44;;;11.22;87.32
82171;BME280;71755;48.038;14.346;2023-08-31T02:34:45;96884.66;;;11.24;87.28
82171;BME280;71755;48.038;14.346;2023-08-31T02:37:11;96891.88;;;11.24;87.46
82171;BME280;71755;48.038;14.346;2023-08-31T02:39:37;96884.66;;;11.30;86.90
82171;BME280;71755;48.038;14.346;2023-08-31T02:42:03;96890.53;;;11.32;87.05
82171;BME280;71755;48.038;14.346;2023-08-31T02:44:31;96891.09;;;11.39;86.86
82171;BME280;71755;48.038;14.346;2023-08-31T02:46:57;96891.09;;;11.44;86.57
82171;BME280;71755;48.038;14.346;2023-08-31T02:49:23;96884.66;;;11.45;86.89
82171;BME280;71755;48.038;14.346;2023-08-31T02:51:50;96895.63;;;11.43;87.20
82171;BME280;71755;48.038;14.346;2023-08-31T02:54:16;96885.19;;;11.47;87.09
82171;BME280;71755;48.038;14.346;2023-08-31T02:56:43;96888.72;;;11.57;86.67
82171;BME280;71755;48.038;14.346;2023-08-31T02:59:09;96886.56;;;11.65;86.43
82171;BME280;71755;48.038;14.346;2023-08-31T03:01:35;96898.59;;;11.67;86.36
82171;BME280;71755;48.038;14.346;2023-08-31T03:04:01;96893.00;;;11.64;85.73
82171;BME280;71755;48.038;14.346;2023-08-31T03:06:26;96890.56;;;11.67;85.44
82171;BME280;71755;48.038;14.346;2023-08-31T03:08:52;96894.31;;;11.66;85.32
82171;BME280;71755;48.038;14.346;2023-08-31T03:11:18;96891.09;;;11.69;85.45
82171;BME280;71755;48.038;14.346;2023-08-31T03:13:44;96889.50;;;11.73;84.94
82171;BME280;71755;48.038;14.346;2023-08-31T03:16:10;96890.03;;;11.75;84.87
82171;BME280;71755;48.038;14.346;2023-08-31T03:18:36;96895.16;;;11.82;85.02
82171;BME280;71755;48.038;14.346;2023-08-31T03:21:02;96897.56;;;11.83;84.88
82171;BME280;71755;48.038;14.346;2023-08-31T03:23:29;96899.19;;;11.89;84.81
82171;BME280;71755;48.038;14.346;2023-08-31T03:25:56;96894.38;;;11.92;84.61
82171;BME280;71755;48.038;14.346;2023-08-31T03:28:22;96902.13;;;11.93;84.95
82171;BME280;71755;48.038;14.346;2023-08-31T03:30:55;96898.09;;;11.96;84.45
82171;BME280;71755;48.038;14.346;2023-08-31T03:33:22;96900.25;;;11.99;84.97
82171;BME280;71755;48.038;14.346;2023-08-31T03:35:48;96908.00;;;12.00;84.84
82171;BME280;71755;48.038;14.346;2023-08-31T03:38:13;96910.94;;;12.04;84.89
82171;BME280;71755;48.038;14.346;2023-08-31T03:40:40;96908.81;;;12.01;85.39
82171;BME280;71755;48.038;14.346;2023-08-31T03:43:06;96915.75;;;12.02;85.16
82171;BME280;71755;48.038;14.346;2023-08-31T03:45:32;96914.41;;;12.04;85.06
82171;BME280;71755;48.038;14.346;2023-08-31T03:47:58;96909.88;;;12.05;85.34
82171;BME280;71755;48.038;14.346;2023-08-31T03:50:24;96918.97;;;12.04;85.75
82171;BME280;71755;48.038;14.346;2023-08-31T03:52:50;96916.84;;;12.01;85.68
82171;BME280;71755;48.038;14.346;2023-08-31T03:55:16;96924.31;;;12.04;85.76
82171;BME280;71755;48.038;14.346;2023-08-31T03:57:43;96921.66;;;12.04;85.63
82171;BME280;71755;48.038;14.346;2023-08-31T04:00:11;96930.47;;;12.04;86.06
82171;BME280;71755;48.038;14.346;2023-08-31T04:02:38;96929.13;;;12.07;85.31
82171;BME280;71755;48.038;14.346;2023-08-31T04:05:05;96935.56;;;12.06;85.68
82171;BME280;71755;48.038;14.346;2023-08-31T04:07:32;96936.63;;;12.05;85.65
82171;BME280;71755;48.038;14.346;2023-08-31T04:09:58;96936.63;;;12.05;85.18
82171;BME280;71755;48.038;14.346;2023-08-31T04:12:25;96948.16;;;12.00;85.17
82171;BME280;71755;48.038;14.346;2023-08-31T04:14:51;96942.00;;;11.95;85.04
82171;BME280;71755;48.038;14.346;2023-08-31T04:17:16;96944.94;;;11.93;85.09
82171;BME280;71755;48.038;14.346;2023-08-31T04:19:42;96952.72;;;11.95;85.11
82171;BME280;71755;48.038;14.346;2023-08-31T04:22:07;96953.78;;;11.94;85.00
82171;BME280;71755;48.038;14.346;2023-08-31T04:24:33;96963.94;;;11.92;85.12
82171;BME280;71755;48.038;14.346;2023-08-31T04:26:59;96958.59;;;11.92;85.10
82171;BME280;71755;48.038;14.346;2023-08-31T04:29:26;96965.03;;;11.91;84.91
82171;BME280;71755;48.038;14.346;2023-08-31T04:31:52;96963.41;;;11.89;84.44
82171;BME280;71755;48.038;14.346;2023-08-31T04:34:17;96960.19;;;11.82;85.46
82171;BME280;71755;48.038;14.346;2023-08-31T04:36:43;96961.78;;;11.83;85.06
82171;BME280;71755;48.038;14.346;2023-08-31T04:39:10;96972.19;;;11.70;85.76
82171;BME280;71755;48.038;14.346;2023-08-31T04:41:36;96975.13;;;11.63;86.17
82171;BME280;71755;48.038;14.346;2023-08-31T04:44:02;96976.19;;;11.62;86.06
82171;BME280;71755;48.038;14.346;2023-08-31T04:46:28;96972.16;;;11.59;85.98
82171;BME280;71755;48.038;14.346;2023-08-31T04:48:54;96974.31;;;11.57;86.55
82171;BME280;71755;48.038;14.346;2023-08-31T04:51:30;96974.59;;;11.66;85.93
82171;BME280;71755;48.038;14.346;2023-08-31T04:53:58;96986.34;;;11.65;85.86
82171;BME280;71755;48.038;14.346;2023-08-31T04:56:30;96999.19;;;11.63;85.98
82171;BME280;71755;48.038;14.346;2023-08-31T04:58:58;96998.13;;;11.59;86.55
82171;BME280;71755;48.038;14.346;2023-08-31T05:01:25;97000.25;;;11.62;86.00
82171;BME280;71755;48.038;14.346;2023-08-31T05:03:51;96997.59;;;11.62;86.65
82171;BME280;71755;48.038;14.346;2023-08-31T05:06:17;97000.81;;;11.64;86.54
82171;BME280;71755;48.038;14.346;2023-08-31T05:08:43;96996.25;;;11.65;86.44
82171;BME280;71755;48.038;14.346;2023-08-31T05:11:09;97004.28;;;11.70;85.75
82171;BME280;71755;48.038;14.346;2023-08-31T05:13:35;97005.63;;;11.72;86.02
82171;BME280;71755;48.038;14.346;2023-08-31T05:16:03;97013.38;;;11.74;85.45
82171;BME280;71755;48.038;14.346;2023-08-31T05:18:29;97021.41;;;11.74;85.99
82171;BME280;71755;48.038;14.346;2023-08-31T05:20:55;97013.66;;;11.77;86.10
82171;BME280;71755;48.038;14.346;2023-08-31T05:23:21;97016.63;;;11.81;85.99
82171;BME280;71755;48.038;14.346;2023-08-31T05:25:47;97027.34;;;11.81;86.27
82171;BME280;71755;48.038;14.346;2023-08-31T05:28:13;97033.78;;;11.85;86.34
82171;BME280;71755;48.038;14.346;2023-08-31T05:30:53;97038.38;;;11.95;85.46
82171;BME280;71755;48.038;14.346;2023-08-31T05:33:19;97040.78;;;12.01;85.63
82171;BME280;71755;48.038;14.346;2023-08-31T05:35:46;97046.66;;;12.03;85.93
82171;BME280;71755;48.038;14.346;2023-08-31T05:38:12;97041.31;;;12.13;85.89
82171;BME280;71755;48.038;14.346;2023-08-31T05:40:38;97035.69;;;12.20;85.53
82171;BME280;71755;48.038;14.346;2023-08-31T05:43:04;97041.59;;;12.27;85.06
82171;BME280;71755;48.038;14.346;2023-08-31T05:45:34;97045.06;;;12.43;84.34
82171;BME280;71755;48.038;14.346;2023-08-31T05:48:00;97050.16;;;12.60;83.48
82171;BME280;71755;48.038;14.346;2023-08-31T05:50:27;97049.34;;;12.69;83.13
82171;BME280;71755;48.038;14.346;2023-08-31T05:52:55;97060.88;;;12.75;82.67
82171;BME280;71755;48.038;14.346;2023-08-31T05:55:21;97062.75;;;12.69;83.17
82171;BME280;71755;48.038;14.346;2023-08-31T05:57:48;97071.06;;;12.68;83.32
82171;BME280;71755;48.038;14.346;2023-08-31T06:00:15;97080.16;;;12.72;83.03
82171;BME280;71755;48.038;14.346;2023-08-31T06:02:43;97089.00;;;12.72;82.93
82171;BME280;71755;48.038;14.346;2023-08-31T06:05:12;97093.31;;;12.73;83.60
82171;BME280;71755;48.038;14.346;2023-08-31T06:07:39;97088.47;;;12.80;83.57
82171;BME280;71755;48.038;14.346;2023-08-31T06:10:06;97095.16;;;13.03;83.51
82171;BME280;71755;48.038;14.346;2023-08-31T06:12:32;97096.75;;;13.04;83.69
82171;BME280;71755;48.038;14.346;2023-08-31T06:14:58;97102.38;;;13.03;84.34
82171;BME280;71755;48.038;14.346;2023-08-31T06:17:26;97105.06;;;13.03;83.97
82171;BME280;71755;48.038;14.346;2023-08-31T06:19:52;97101.56;;;12.97;85.61
82171;BME280;71755;48.038;14.346;2023-08-31T06:22:18;97110.69;;;12.91;85.61
82171;BME280;71755;48.038;14.346;2023-08-31T06:24:44;97106.94;;;12.92;85.05
82171;BME280;71755;48.038;14.346;2023-08-31T06:27:11;97120.63;;;12.91;85.44
82171;BME280;71755;48.038;14.346;2023-08-31T06:29:38;97113.66;;;12.90;85.22
82171;BME280;71755;48.038;14.346;2023-08-31T06:32:04;97126.53;;;12.88;85.59
82171;BME280;71755;48.038;14.346;2023-08-31T06:34:31;97120.88;;;12.89;85.83
82171;BME280;71755;48.038;14.346;2023-08-31T06:36:58;97123.03;;;12.87;86.69
82171;BME280;71755;48.038;14.346;2023-08-31T06:39:24;97128.66;;;12.86;86.99
82171;BME280;71755;48.038;14.346;2023-08-31T06:41:50;97121.69;;;12.90;87.11
82171;BME280;71755;48.038;14.346;2023-08-31T06:44:16;97126.25;;;12.94;87.38
82171;BME280;71755;48.038;14.346;2023-08-31T06:46:42;97135.34;;;12.98;86.58
82171;BME280;71755;48.038;14.346;2023-08-31T06:49:08;97128.13;;;13.04;87.25
82171;BME280;71755;48.038;14.346;2023-08-31T06:51:36;97142.88;;;13.06;86.61
82171;BME280;71755;48.038;14.346;2023-08-31T06:54:02;97134.53;;;13.13;85.75
82171;BME280;71755;48.038;14.346;2023-08-31T06:56:35;97150.09;;;13.16;86.42
82171;BME280;71755;48.038;14.346;2023-08-31T06:59:02;97137.78;;;13.20;86.19
82171;BME280;71755;48.038;14.346;2023-08-31T07:01:29;97144.19;;;13.24;86.24
82171;BME280;71755;48.038;14.346;2023-08-31T07:03:55;97147.66;;;13.30;86.38
82171;BME280;71755;48.038;14.346;2023-08-31T07:06:21;97146.06;;;13.34;85.04
82171;BME280;71755;48.038;14.346;2023-08-31T07:08:48;97146.06;;;13.44;86.71
82171;BME280;71755;48.038;14.346;2023-08-31T07:11:14;97147.09;;;13.53;85.50
82171;BME280;71755;48.038;14.346;2023-08-31T07:13:41;97140.34;;;13.61;85.95
82171;BME280;71755;48.038;14.346;2023-08-31T07:16:07;97149.47;;;13.65;85.48
82171;BME280;71755;48.038;14.346;2023-08-31T07:18:34;97141.38;;;13.75;83.67
82171;BME280;71755;48.038;14.346;2023-08-31T07:21:00;97148.09;;;13.77;85.25
82171;BME280;71755;48.038;14.346;2023-08-31T07:23:26;97144.03;;;13.75;82.90
82171;BME280;71755;48.038;14.346;2023-08-31T07:25:52;97148.63;;;13.80;83.53
82171;BME280;71755;48.038;14.346;2023-08-31T07:28:18;97148.88;;;13.83;82.97
82171;BME280;71755;48.038;14.346;2023-08-31T07:30:44;97150.44;;;13.89;82.91
82171;BME280;71755;48.038;14.346;2023-08-31T07:33:10;97139.09;;;14.02;83.22
82171;BME280;71755;48.038;14.346;2023-08-31T07:35:36;97145.78;;;14.15;84.73
82171;BME280;71755;48.038;14.346;2023-08-31T07:38:02;97146.16;;;14.43;82.84
82171;BME280;71755;48.038;14.346;2023-08-31T07:40:29;97136.91;;;14.59;82.57
82171;BME280;71755;48.038;14.346;2023-08-31T07:42:55;97140.97;;;14.56;81.72
82171;BME280;71755;48.038;14.346;2023-08-31T07:45:21;97142.25;;;14.64;80.33
82171;BME280;71755;48.038;14.346;2023-08-31T07:47:47;97154.72;;;14.89;79.21
82171;BME280;71755;48.038;14.346;2023-08-31T07:50:14;97155.56;;;15.13;78.92
82171;BME280;71755;48.038;14.346;2023-08-31T07:52:40;97163.28;;;15.25;77.43
82171;BME280;71755;48.038;14.346;2023-08-31T07:55:07;97164.78;;;15.36;74.69
82171;BME280;71755;48.038;14.346;2023-08-31T07:57:33;97169.19;;;15.51;74.82
82171;BME280;71755;48.038;14.346;2023-08-31T08:00:00;97160.47;;;15.64;75.42
82171;BME280;71755;48.038;14.346;2023-08-31T08:02:25;97166.66;;;15.65;74.55
82171;BME280;71755;48.038;14.346;2023-08-31T08:04:51;97168.03;;;15.86;74.59
82171;BME280;71755;48.038;14.346;2023-08-31T08:07:17;97162.97;;;16.03;74.29
82171;BME280;71755;48.038;14.346;2023-08-31T08:09:43;97162.69;;;16.05;71.97
82171;BME280;71755;48.038;14.346;2023-08-31T08:12:10;97165.50;;;15.94;71.94
82171;BME280;71755;48.038;14.346;2023-08-31T08:14:35;97168.41;;;15.98;71.96
82171;BME280;71755;48.038;14.346;2023-08-31T08:17:01;97169.22;;;16.41;71.77
82171;BME280;71755;48.038;14.346;2023-08-31T08:19:29;97161.91;;;16.61;71.93
82171;BME280;71755;48.038;14.346;2023-08-31T08:21:54;97172.41;;;16.43;70.00
82171;BME280;71755;48.038;14.346;2023-08-31T08:24:20;97181.50;;;16.29;71.00
82171;BME280;71755;48.038;14.346;2023-08-31T08:26:46;97182.19;;;16.39;70.40
82171;BME280;71755;48.038;14.346;2023-08-31T08:29:13;97180.56;;;16.38;71.16
82171;BME280;71755;48.038;14.346;2023-08-31T08:31:38;97169.75;;;16.19;68.42
82171;BME280;71755;48.038;14.346;2023-08-31T08:34:04;97177.25;;;16.22;69.62
82171;BME280;71755;48.038;14.346;2023-08-31T08:36:31;97187.50;;;16.02;68.22
82171;BME280;71755;48.038;14.346;2023-08-31T08:38:57;97185.09;;;16.00;68.14
82171;BME280;71755;48.038;14.346;2023-08-31T08:41:24;97188.66;;;16.38;68.33
82171;BME280;71755;48.038;14.346;2023-08-31T08:43:51;97194.78;;;16.44;68.74
82171;BME280;71755;48.038;14.346;2023-08-31T08:46:17;97197.69;;;16.47;68.33
82171;BME280;71755;48.038;14.346;2023-08-31T08:48:44;97198.97;;;16.31;68.73
82171;BME280;71755;48.038;14.346;2023-08-31T08:51:13;97195.31;;;16.22;66.58
82171;BME280;71755;48.038;14.346;2023-08-31T08:53:43;97209.34;;;16.00;67.53
82171;BME280;71755;48.038;14.346;2023-08-31T08:56:10;97202.19;;;15.90;69.48
82171;BME280;71755;48.038;14.346;2023-08-31T08:58:35;97202.59;;;15.79;69.57
82171;BME280;71755;48.038;14.346;2023-08-31T09:01:02;97213.47;;;15.92;70.11
82171;BME280;71755;48.038;14.346;2023-08-31T09:03:29;97201.59;;;15.93;70.48
82171;BME280;71755;48.038;14.346;2023-08-31T09:05:55;97205.38;;;15.92;70.93
82171;BME280;71755;48.038;14.346;2023-08-31T09:08:28;97209.50;;;15.85;70.12
82171;BME280;71755;48.038;14.346;2023-08-31T09:10:58;97217.72;;;15.75;70.06
82171;BME280;71755;48.038;14.346;2023-08-31T09:13:28;97213.41;;;15.74;70.27
82171;BME280;71755;48.038;14.346;2023-08-31T09:15:55;97215.53;;;16.01;70.56
82171;BME280;71755;48.038;14.346;2023-08-31T09:18:30;97210.75;;;16.59;70.38
82171;BME280;71755;48.038;14.346;2023-08-31T09:20:58;97216.97;;;16.78;68.40
82171;BME280;71755;48.038;14.346;2023-08-31T09:23:24;97207.97;;;17.34;68.15
82171;BME280;71755;48.038;14.346;2023-08-31T09:25:52;97217.16;;;17.19;68.07
82171;BME280;71755;48.038;14.346;2023-08-31T09:28:24;97222.06;;;17.31;65.26
82171;BME280;71755;48.038;14.346;2023-08-31T09:30:53;97222.09;;;17.45;66.39
82171;BME280;71755;48.038;14.346;2023-08-31T09:33:20;97223.34;;;17.20;65.60
82171;BME280;71755;48.038;14.346;2023-08-31T09:35:56;97221.88;;;17.09;64.78
82171;BME280;71755;48.038;14.346;2023-08-31T09:38:23;97233.00;;;16.88;63.95
82171;BME280;71755;48.038;14.346;2023-08-31T09:40:49;97238.19;;;16.85;63.33
82171;BME280;71755;48.038;14.346;2023-08-31T09:43:23;97232.78;;;16.85;64.47
82171;BME280;71755;48.038;14.346;2023-08-31T09:45:50;97224.78;;;16.80;64.49
82171;BME280;71755;48.038;14.346;2023-08-31T09:48:17;97232.28;;;16.83;64.52
82171;BME280;71755;48.038;14.346;2023-08-31T09:50:45;97234.97;;;17.02;63.24
82171;BME280;71755;48.038;14.346;2023-08-31T09:53:12;97236.44;;;16.94;64.20
82171;BME280;71755;48.038;14.346;2023-08-31T09:55:41;97227.25;;;16.95;65.80
82171;BME280;71755;48.038;14.346;2023-08-31T09:58:09;97223.59;;;16.86;63.57
82171;BME280;71755;48.038;14.346;2023-08-31T10:00:37;97238.41;;;16.88;63.39
82171;BME280;71755;48.038;14.346;2023-08-31T10:03:07;97239.13;;;16.94;65.23
82171;BME280;71755;48.038;14.346;2023-08-31T10:05:34;97243.25;;;17.24;64.04
82171;BME280;71755;48.038;14.346;2023-08-31T10:08:02;97236.84;;;17.85;64.85
82171;BME280;71755;48.038;14.346;2023-08-31T10:10:29;97233.09;;;17.67;62.94
82171;BME280;71755;48.038;14.346;2023-08-31T10:12:56;97240.94;;;17.96;64.83
82171;BME280;71755;48.038;14.346;2023-08-31T10:15:26;97244.34;;;17.88;62.26
82171;BME280;71755;48.038;14.346;2023-08-31T10:17:59;97255.84;;;18.07;60.80
82171;BME280;71755;48.038;14.346;2023-08-31T10:20:26;97255.06;;;18.07;63.07
82171;BME280;71755;48.038;14.346;2023-08-31T10:23:06;97255.13;;;17.74;61.86
82171;BME280;71755;48.038;14.346;2023-08-31T10:28:21;97251.41;;;17.70;61.17
82171;BME280;71755;48.038;14.346;2023-08-31T10:31:08;97249.41;;;17.43;59.43
82171;BME280;71755;48.038;14.346;2023-08-31T10:33:45;97251.78;;;17.31;60.68
82171;BME280;71755;48.038;14.346;2023-08-31T10:38:37;97260.56;;;17.23;61.09
82171;BME280;71755;48.038;14.346;2023-08-31T10:43:54;97259.47;;;17.89;60.12
82171;BME280;71755;48.038;14.346;2023-08-31T10:46:39;97256.50;;;17.72;60.27
82171;BME280;71755;48.038;14.346;2023-08-31T10:51:45;97256.06;;;17.32;59.83
82171;BME280;71755;48.038;14.346;2023-08-31T10:59:24;97251.03;;;17.12;62.24
82171;BME280;71755;48.038;14.346;2023-08-31T11:02:01;97252.16;;;17.25;63.09
82171;BME280;71755;48.038;14.346;2023-08-31T11:04:29;97271.28;;;16.91;60.15
82171;BME280;71755;48.038;14.346;2023-08-31T11:07:17;97255.59;;;16.93;62.52
82171;BME280;71755;48.038;14.346;2023-08-31T11:09:45;97257.50;;;17.11;62.45
82171;BME280;71755;48.038;14.346;2023-08-31T11:12:11;97256.13;;;17.13;62.29
82171;BME280;71755;48.038;14.346;2023-08-31T11:14:38;97262.91;;;17.11;61.90
82171;BME280;71755;48.038;14.346;2023-08-31T11:17:05;97262.25;;;17.00;61.43
82171;BME280;71755;48.038;14.346;2023-08-31T11:19:34;97261.31;;;17.10;61.58
82171;BME280;71755;48.038;14.346;2023-08-31T11:22:01;97259.63;;;17.14;60.00
82171;BME280;71755;48.038;14.346;2023-08-31T11:24:33;97261.06;;;17.06;62.36
82171;BME280;71755;48.038;14.346;2023-08-31T11:27:00;97266.72;;;17.10;62.32
82171;BME280;71755;48.038;14.346;2023-08-31T11:29:29;97265.81;;;17.14;61.91
82171;BME280;71755;48.038;14.346;2023-08-31T11:31:58;97266.03;;;17.18;59.33
82171;BME280;71755;48.038;14.346;2023-08-31T11:34:27;97268.47;;;17.33;60.98
82171;BME280;71755;48.038;14.346;2023-08-31T11:36:53;97261.31;;;17.42;61.05
82171;BME280;71755;48.038;14.346;2023-08-31T11:39:20;97261.81;;;17.44;62.63
82171;BME280;71755;48.038;14.346;2023-08-31T11:41:47;97259.56;;;17.52;62.93
82171;BME280;71755;48.038;14.346;2023-08-31T11:44:14;97263.69;;;17.63;61.86
82171;BME280;71755;48.038;14.346;2023-08-31T11:46:45;97263.25;;;17.56;62.32
82171;BME280;71755;48.038;14.346;2023-08-31T11:49:19;97262.13;;;17.75;62.42
82171;BME280;71755;48.038;14.346;2023-08-31T11:51:47;97272.03;;;17.80;62.61
82171;BME280;71755;48.038;14.346;2023-08-31T11:54:17;97266.78;;;18.02;61.22
82171;BME280;71755;48.038;14.346;2023-08-31T11:56:45;97256.25;;;18.01;61.82
82171;BME280;71755;48.038;14.346;2023-08-31T11:59:17;97254.16;;;18.25;60.17
82171;BME280;71755;48.038;14.346;2023-08-31T12:01:46;97251.06;;;18.04;60.71
82171;BME280;71755;48.038;14.346;2023-08-31T12:04:24;97250.34;;;18.12;61.55
82171;BME280;71755;48.038;14.346;2023-08-31T12:07:01;97251.53;;;18.20;59.14
82171;BME280;71755;48.038;14.346;2023-08-31T12:09:30;97257.19;;;18.24;62.76
82171;BME280;71755;48.038;14.346;2023-08-31T12:11:57;97248.56;;;18.99;61.24
82171;BME280;71755;48.038;14.346;2023-08-31T12:14:25;97248.28;;;18.87;59.51
82171;BME280;71755;48.038;14.346;2023-08-31T12:17:00;97244.09;;;18.81;60.08
82171;BME280;71755;48.038;14.346;2023-08-31T12:19:33;97244.13;;;19.03;58.81
82171;BME280;71755;48.038;14.346;2023-08-31T12:21:59;97240.94;;;19.01;59.46
82171;BME280;71755;48.038;14.346;2023-08-31T12:24:25;97246.50;;;18.82;59.75
82171;BME280;71755;48.038;14.346;2023-08-31T12:26:52;97238.66;;;19.17;59.33
82171;BME280;71755;48.038;14.346;2023-08-31T12:29:22;97234.00;;;19.84;58.98
82171;BME280;71755;48.038;14.346;2023-08-31T12:31:49;97228.94;;;19.91;58.54
82171;BME280;71755;48.038;14.346;2023-08-31T12:34:15;97238.63;;;19.84;56.84
82171;BME280;71755;48.038;14.346;2023-08-31T12:36:41;97233.09;;;19.97;57.10
82171;BME280;71755;48.038;14.346;2023-08-31T12:39:08;97240.94;;;19.46;57.94
82171;BME280;71755;48.038;14.346;2023-08-31T12:41:38;97245.25;;;19.02;57.20
82171;BME280;71755;48.038;14.346;2023-08-31T12:44:08;97238.63;;;18.94;57.26
82171;BME280;71755;48.038;14.346;2023-08-31T12:46:34;97245.75;;;18.90;57.63
82171;BME280;71755;48.038;14.346;2023-08-31T12:49:01;97238.00;;;19.33;56.38
82171;BME280;71755;48.038;14.346;2023-08-31T12:51:29;97233.78;;;19.50;55.72
82171;BME280;71755;48.038;14.346;2023-08-31T12:53:57;97232.19;;;19.71;54.27
82171;BME280;71755;48.038;14.346;2023-08-31T12:56:23;97233.66;;;19.77;56.91
82171;BME280;71755;48.038;14.346;2023-08-31T12:58:53;97225.22;;;20.27;54.02
82171;BME280;71755;48.038;14.346;2023-08-31T13:01:20;97211.25;;;20.42;52.40
82171;BME280;71755;48.038;14.346;2023-08-31T13:03:48;97215.78;;;20.81;53.52
82171;BME280;71755;48.038;14.346;2023-08-31T13:06:15;97205.22;;;20.80;53.74
82171;BME280;71755;48.038;14.346;2023-08-31T13:08:44;97212.56;;;20.71;51.61
82171;BME280;71755;48.038;14.346;2023-08-31T13:11:11;97216.41;;;20.13;52.71
82171;BME280;71755;48.038;14.346;2023-08-31T13:13:39;97215.31;;;20.14;52.71
82171;BME280;71755;48.038;14.346;2023-08-31T13:16:05;97226.66;;;20.16;53.23